createdAt,value
2023-08-02T00:02:23.782Z,15.43
2023-08-02T00:06:37.910Z,15.39
2023-08-02T00:10:50.438Z,15.45
2023-08-02T00:15:02.979Z,15.39
2023-08-02T00:19:16.259Z,15.41
2023-08-02T00:23:28.774Z,15.38
2023-08-02T00:27:41.287Z,15.19
2023-08-02T00:31:53.758Z,15.06
2023-08-02T00:36:06.419Z,14.90
2023-08-02T00:40:19.182Z,15.06
2023-08-02T00:44:31.727Z,14.91
2023-08-02T00:48:45.788Z,14.85
2023-08-02T00:52:58.859Z,14.85
2023-08-02T00:57:11.548Z,14.74
2023-08-02T01:01:24.361Z,14.57
2023-08-02T01:05:45.997Z,14.64
2023-08-02T01:10:11.483Z,14.40
2023-08-02T01:14:27.897Z,14.24
2023-08-02T01:18:40.689Z,14.56
2023-08-02T01:22:57.793Z,14.80
2023-08-02T01:27:19.060Z,14.59
2023-08-02T01:31:34.071Z,14.61
2023-08-02T01:35:47.062Z,14.70
2023-08-02T01:39:59.518Z,14.63
2023-08-02T01:44:12.093Z,14.57
2023-08-02T01:48:24.979Z,14.55
2023-08-02T01:52:37.477Z,14.63
2023-08-02T01:56:50.037Z,14.69
2023-08-02T02:01:02.626Z,14.47
2023-08-02T02:05:15.299Z,14.21
2023-08-02T02:09:27.778Z,14.07
2023-08-02T02:13:40.238Z,13.68
2023-08-02T02:17:52.738Z,13.65
2023-08-02T02:22:05.575Z,13.48
2023-08-02T02:26:18.254Z,13.39
2023-08-02T02:30:32.548Z,13.24
2023-08-02T02:34:45.556Z,13.09
2023-08-02T02:38:58.038Z,12.98
2023-08-02T02:43:10.483Z,12.89
2023-08-02T02:47:22.984Z,12.89
2023-08-02T02:51:35.457Z,12.75
2023-08-02T02:55:48.382Z,12.78
2023-08-02T03:00:00.902Z,12.67
2023-08-02T03:04:13.396Z,12.55
2023-08-02T03:08:25.959Z,12.51
2023-08-02T03:12:38.494Z,12.56
2023-08-02T03:16:51.058Z,12.53
2023-08-02T03:21:03.635Z,12.37
2023-08-02T03:25:16.134Z,12.36
2023-08-02T03:29:28.644Z,12.23
2023-08-02T03:33:41.153Z,12.16
2023-08-02T03:37:53.669Z,12.14
2023-08-02T03:42:06.420Z,12.08
2023-08-02T03:46:20.248Z,12.00
2023-08-02T03:50:35.901Z,11.96
2023-08-02T03:54:49.519Z,12.06
2023-08-02T03:59:02.027Z,12.02
2023-08-02T04:03:14.528Z,12.05
2023-08-02T04:07:27.048Z,12.09
2023-08-02T04:11:39.598Z,12.22
2023-08-02T04:15:52.084Z,12.41
2023-08-02T04:20:05.073Z,12.82
2023-08-02T04:24:17.521Z,12.94
2023-08-02T04:28:29.992Z,13.14
2023-08-02T04:32:42.694Z,13.37
2023-08-02T04:36:55.262Z,13.48
2023-08-02T04:41:07.782Z,13.80
2023-08-02T04:45:21.112Z,14.15
2023-08-02T04:49:33.579Z,14.33
2023-08-02T04:53:49.303Z,14.38
2023-08-02T04:58:01.846Z,14.25
2023-08-02T05:02:14.338Z,14.60
2023-08-02T05:06:26.909Z,14.64
2023-08-02T05:10:39.762Z,14.73
2023-08-02T05:14:52.296Z,14.80
2023-08-02T05:19:05.155Z,14.81
2023-08-02T05:23:18.106Z,14.97
2023-08-02T05:27:30.712Z,15.32
2023-08-02T05:31:43.477Z,15.54
2023-08-02T05:35:56.153Z,16.18
2023-08-02T05:40:09.616Z,16.33
2023-08-02T05:44:22.214Z,16.09
2023-08-02T05:48:34.684Z,16.16
2023-08-02T05:52:47.218Z,16.22
2023-08-02T05:56:59.744Z,16.43
2023-08-02T06:01:12.322Z,16.54
2023-08-02T06:05:24.846Z,16.29
2023-08-02T06:09:37.417Z,16.33
2023-08-02T06:13:49.908Z,16.32
2023-08-02T06:18:02.441Z,16.29
2023-08-02T06:22:15.862Z,16.22
2023-08-02T06:26:29.484Z,16.32
2023-08-02T06:30:42.164Z,16.47
2023-08-02T06:34:54.760Z,16.76
2023-08-02T06:39:07.653Z,16.64
2023-08-02T06:43:20.149Z,16.98
2023-08-02T06:47:32.676Z,17.00
2023-08-02T06:51:45.509Z,16.85
2023-08-02T06:55:59.352Z,16.79
2023-08-02T07:00:12.652Z,16.86
2023-08-02T07:04:25.181Z,16.76
2023-08-02T07:08:39.211Z,17.14
2023-08-02T07:12:52.112Z,17.38
2023-08-02T07:17:04.708Z,17.31
2023-08-02T07:21:17.204Z,17.56
2023-08-02T07:25:29.802Z,17.76
2023-08-02T07:29:42.384Z,18.19
2023-08-02T07:33:54.873Z,18.53
2023-08-02T07:38:07.643Z,18.52
2023-08-02T07:42:20.174Z,18.63
2023-08-02T07:46:33.094Z,19.08
2023-08-02T07:50:46.036Z,19.28
2023-08-02T07:54:58.917Z,18.66
2023-08-02T07:59:11.432Z,18.65
2023-08-02T08:03:24.004Z,18.54
2023-08-02T08:07:36.551Z,19.15
2023-08-02T08:11:49.090Z,19.00
2023-08-02T08:16:02.992Z,19.09
2023-08-02T08:20:15.783Z,19.11
2023-08-02T08:24:28.367Z,19.11
2023-08-02T08:28:40.955Z,19.15
2023-08-02T08:32:53.456Z,19.13
2023-08-02T08:37:06.075Z,18.82
2023-08-02T08:41:19.682Z,18.84
2023-08-02T08:45:33.049Z,19.11
2023-08-02T08:49:49.020Z,19.14
2023-08-02T08:54:15.062Z,19.26
2023-08-02T08:58:28.420Z,19.49
2023-08-02T09:02:42.013Z,19.25
2023-08-02T09:06:54.498Z,19.34
2023-08-02T09:11:07.238Z,19.92
2023-08-02T09:15:19.895Z,19.63
2023-08-02T09:19:35.681Z,19.67
2023-08-02T09:23:49.796Z,19.27
2023-08-02T09:28:13.374Z,19.63
2023-08-02T09:32:27.330Z,19.43
2023-08-02T09:36:40.264Z,19.42
2023-08-02T09:41:39.466Z,19.15
2023-08-02T09:45:35.733Z,19.04
2023-08-02T09:50:13.409Z,18.88
2023-08-02T09:54:26.069Z,19.53
2023-08-02T09:58:41.482Z,19.33
2023-08-02T10:02:54.341Z,18.97
2023-08-02T10:07:14.430Z,18.75
2023-08-02T10:11:27.839Z,18.17
2023-08-02T10:15:42.336Z,18.06
2023-08-02T10:19:55.245Z,18.15
2023-08-02T10:24:08.673Z,18.44
2023-08-02T10:28:22.166Z,17.95
2023-08-02T10:32:35.239Z,17.95
2023-08-02T10:36:59.423Z,17.91
2023-08-02T10:41:16.867Z,17.85
2023-08-02T10:45:29.380Z,18.12
2023-08-02T10:49:41.998Z,19.04
2023-08-02T10:54:21.558Z,19.46
2023-08-02T10:58:49.039Z,18.87
2023-08-02T11:03:02.324Z,18.91
2023-08-02T11:07:18.086Z,20.13
2023-08-02T11:11:33.411Z,21.08
2023-08-02T11:15:47.754Z,21.98
2023-08-02T11:24:17.088Z,23.18
2023-08-02T11:28:29.608Z,23.14
2023-08-02T11:32:47.832Z,23.58
2023-08-02T11:37:00.421Z,23.85
2023-08-02T11:41:22.009Z,25.09
2023-08-02T11:45:36.550Z,25.16
2023-08-02T11:49:59.731Z,25.56
2023-08-02T11:54:12.428Z,24.43
2023-08-02T11:58:25.092Z,24.91
2023-08-02T12:02:37.729Z,25.60
2023-08-02T12:06:53.472Z,26.96
2023-08-02T12:11:16.110Z,26.49
2023-08-02T12:15:29.234Z,27.99
2023-08-02T12:19:45.382Z,27.25
2023-08-02T12:23:59.445Z,26.93
2023-08-02T12:28:12.048Z,28.45
2023-08-02T12:32:29.350Z,27.82
2023-08-02T12:36:42.295Z,28.35
2023-08-02T12:40:55.001Z,29.13
2023-08-02T12:45:17.283Z,28.69
2023-08-02T12:49:30.643Z,29.94
2023-08-02T12:53:43.764Z,29.72
2023-08-02T12:57:56.739Z,29.82
2023-08-02T13:02:09.260Z,29.86
2023-08-02T13:06:21.830Z,30.69
2023-08-02T13:10:34.387Z,29.67
2023-08-02T13:14:46.979Z,30.25
2023-08-02T13:18:59.467Z,30.57
2023-08-02T13:23:12.387Z,30.54
2023-08-02T13:27:26.401Z,31.45
2023-08-02T13:31:39.662Z,31.44
2023-08-02T13:35:52.224Z,31.10
2023-08-02T13:40:05.851Z,31.08
2023-08-02T13:44:19.466Z,30.94
2023-08-02T13:48:32.094Z,31.61
2023-08-02T13:52:45.198Z,32.11
2023-08-02T13:56:58.047Z,31.39
2023-08-02T14:01:12.039Z,32.04
2023-08-02T14:05:25.229Z,33.20
2023-08-02T14:09:38.646Z,33.16
2023-08-02T14:13:52.904Z,32.05
2023-08-02T14:18:05.515Z,32.70
2023-08-02T14:22:19.250Z,33.47
2023-08-02T14:26:31.730Z,33.55
2023-08-02T14:30:44.885Z,34.29
2023-08-02T14:34:58.074Z,33.90
2023-08-02T14:39:10.622Z,34.05
2023-08-02T14:43:23.725Z,34.05
2023-08-02T14:47:37.126Z,33.46
2023-08-02T14:51:50.305Z,32.55
2023-08-02T14:56:02.789Z,31.58
2023-08-02T15:00:16.356Z,30.89
2023-08-02T15:04:28.786Z,31.81
2023-08-02T15:08:41.929Z,33.56
2023-08-02T15:12:54.423Z,34.37
2023-08-02T15:17:07.712Z,34.75
2023-08-02T15:21:20.147Z,33.92
2023-08-02T15:25:33.734Z,34.10
2023-08-02T15:29:46.822Z,33.96
2023-08-02T15:33:59.877Z,33.13
2023-08-02T15:38:13.088Z,31.80
2023-08-02T15:42:26.199Z,30.91
2023-08-02T15:46:42.719Z,30.68
2023-08-02T15:50:55.478Z,30.37
2023-08-02T15:55:08.562Z,29.77
2023-08-02T15:59:21.073Z,29.27
2023-08-02T16:03:37.570Z,28.85
2023-08-02T16:07:51.100Z,28.48
2023-08-02T16:12:03.895Z,30.27
2023-08-02T16:16:16.393Z,32.19
2023-08-02T16:20:29.007Z,32.97
2023-08-02T16:24:41.528Z,32.42
2023-08-02T16:28:54.083Z,31.64
2023-08-02T16:33:07.291Z,29.12
2023-08-02T16:37:20.520Z,27.54
2023-08-02T16:41:33.265Z,26.87
2023-08-02T16:45:45.927Z,26.58
2023-08-02T16:49:58.415Z,26.36
2023-08-02T16:54:10.902Z,26.25
2023-08-02T16:58:23.807Z,26.10
2023-08-02T17:02:36.362Z,25.72
2023-08-02T17:06:48.929Z,25.33
2023-08-02T17:11:01.505Z,24.94
2023-08-02T17:15:14.063Z,24.59
2023-08-02T17:19:27.647Z,24.59
2023-08-02T17:23:40.655Z,24.50
2023-08-02T17:27:53.183Z,24.36
2023-08-02T17:32:06.171Z,24.20
2023-08-02T17:36:19.175Z,23.99
2023-08-02T17:40:32.317Z,23.63
2023-08-02T17:44:44.817Z,23.65
2023-08-02T17:48:57.405Z,23.17
2023-08-02T17:53:10.008Z,22.82
2023-08-02T17:57:23.294Z,22.68
2023-08-02T18:01:35.977Z,22.53
2023-08-02T18:05:49.084Z,22.38
2023-08-02T18:10:01.590Z,22.39
2023-08-02T18:14:14.127Z,22.25
2023-08-02T18:18:26.726Z,22.06
2023-08-02T18:22:39.267Z,21.90
2023-08-02T18:26:51.828Z,21.83
2023-08-02T18:31:04.322Z,21.74
2023-08-02T18:35:16.897Z,21.61
2023-08-02T18:39:32.778Z,21.59
2023-08-02T18:43:45.395Z,21.51
2023-08-02T18:47:58.008Z,21.39
2023-08-02T18:52:10.541Z,21.70
2023-08-02T18:56:24.551Z,21.56
2023-08-02T19:00:42.754Z,21.50
2023-08-02T19:04:55.303Z,21.59
2023-08-02T19:09:09.483Z,21.55
2023-08-02T19:13:21.966Z,21.41
2023-08-02T19:17:41.277Z,21.71
2023-08-02T19:21:53.812Z,21.41
2023-08-02T19:26:07.247Z,21.62
2023-08-02T19:30:27.622Z,21.59
2023-08-02T19:34:40.251Z,21.48
2023-08-02T19:38:52.827Z,21.33
2023-08-02T19:43:05.419Z,21.30
2023-08-02T19:47:27.057Z,21.37
2023-08-02T19:51:39.586Z,21.41
2023-08-02T19:55:52.477Z,21.43
2023-08-02T20:00:06.033Z,21.46
2023-08-02T20:04:18.622Z,21.52
2023-08-02T20:08:34.910Z,21.53
2023-08-02T20:12:47.460Z,21.48
2023-08-02T20:17:00.022Z,21.62
2023-08-02T20:21:22.031Z,21.60
2023-08-02T20:25:35.594Z,21.54
2023-08-02T20:29:48.112Z,21.54
2023-08-02T20:34:00.717Z,21.55
2023-08-02T20:38:15.510Z,21.44
2023-08-02T20:42:28.037Z,21.66
2023-08-02T20:46:40.607Z,21.75
2023-08-02T20:50:53.291Z,21.85
2023-08-02T20:55:07.992Z,21.35
2023-08-02T20:59:22.198Z,20.99
2023-08-02T21:03:38.451Z,20.87
2023-08-02T21:07:51.064Z,20.74
2023-08-02T21:12:04.429Z,20.55
2023-08-02T21:16:17.078Z,20.40
2023-08-02T21:20:47.779Z,20.12
2023-08-02T21:25:00.289Z,20.03
2023-08-02T21:29:16.223Z,19.82
2023-08-02T21:33:34.210Z,19.75
2023-08-02T21:37:47.991Z,19.55
2023-08-02T21:42:01.653Z,19.48
2023-08-02T21:46:14.750Z,19.54
2023-08-02T21:50:27.666Z,19.44
2023-08-02T21:54:41.145Z,19.48
2023-08-02T21:59:06.435Z,19.36
2023-08-02T22:03:19.022Z,19.31
2023-08-02T22:07:32.211Z,19.31
2023-08-02T22:11:46.374Z,19.37
2023-08-02T22:15:58.911Z,19.38
2023-08-02T22:20:12.400Z,19.49
2023-08-02T22:24:24.960Z,19.54
2023-08-02T22:28:37.454Z,19.55
2023-08-02T22:32:49.968Z,19.79
2023-08-02T22:37:02.496Z,20.04
2023-08-02T22:41:15.096Z,19.74
2023-08-02T22:45:27.726Z,18.43
2023-08-02T22:53:57.391Z,17.61
2023-08-02T22:58:10.562Z,17.46
2023-08-02T23:02:33.763Z,17.25
2023-08-02T23:06:51.392Z,17.23
2023-08-02T23:11:04.410Z,17.12
2023-08-02T23:15:22.890Z,17.01
2023-08-02T23:19:37.149Z,16.63
2023-08-02T23:29:34.226Z,16.67
2023-08-02T23:33:46.741Z,16.61
2023-08-02T23:37:59.217Z,16.63
2023-08-02T23:42:11.670Z,16.71
2023-08-02T23:46:24.198Z,16.74
2023-08-02T23:50:36.632Z,16.72
2023-08-02T23:54:49.144Z,16.56
2023-08-02T23:59:01.678Z,16.38
